createdAt,value
2022-08-25T00:00:50.729Z,8.22
2022-08-25T00:02:00.516Z,10.74
2022-08-25T00:03:06.246Z,13.07
2022-08-25T00:04:14.404Z,7.36
2022-08-25T00:05:19.117Z,11.43
2022-08-25T00:06:22.891Z,9.57
2022-08-25T00:07:26.488Z,6.70
2022-08-25T00:08:29.468Z,9.32
2022-08-25T00:09:37.488Z,11.47
2022-08-25T00:10:43.430Z,6.27
2022-08-25T00:11:51.663Z,5.94
2022-08-25T00:13:00.453Z,6.51
2022-08-25T00:14:08.768Z,10.57
2022-08-25T00:16:35.615Z,10.06
2022-08-25T00:17:40.236Z,9.16
2022-08-25T00:18:46.691Z,9.59
2022-08-25T00:21:06.454Z,6.84
2022-08-25T00:22:10.018Z,10.21
2022-08-25T00:23:13.729Z,10.52
2022-08-25T00:24:19.782Z,11.84
2022-08-25T00:25:27.474Z,10.20
2022-08-25T00:26:33.646Z,11.57
2022-08-25T00:27:37.215Z,7.43
2022-08-25T00:28:41.631Z,9.00
2022-08-25T00:29:45.217Z,8.09
2022-08-25T00:30:49.363Z,8.94
2022-08-25T00:31:55.320Z,6.58
2022-08-25T00:32:58.178Z,7.61
2022-08-25T00:34:01.291Z,9.49
2022-08-25T00:35:05.969Z,8.67
2022-08-25T00:36:15.561Z,9.71
2022-08-25T00:37:19.875Z,11.84
2022-08-25T00:38:24.445Z,7.90
2022-08-25T00:39:27.255Z,9.28
2022-08-25T00:40:33.233Z,7.74
2022-08-25T00:41:38.643Z,10.57
2022-08-25T00:42:46.132Z,10.88
2022-08-25T00:43:53.568Z,8.25
2022-08-25T00:44:56.444Z,6.71
2022-08-25T00:46:03.345Z,10.61
2022-08-25T00:47:09.401Z,6.56
2022-08-25T00:48:13.965Z,7.85
2022-08-25T00:49:47.258Z,7.01
2022-08-25T00:50:53.492Z,11.54
2022-08-25T00:52:19.535Z,6.41
2022-08-25T00:53:24.930Z,9.49
2022-08-25T00:54:34.299Z,8.08
2022-08-25T00:55:41.050Z,9.77
2022-08-25T00:56:46.144Z,8.60
2022-08-25T00:58:00.236Z,7.46
2022-08-25T00:59:08.879Z,7.29
2022-08-25T01:00:27.051Z,8.98
2022-08-25T01:01:30.272Z,8.23
2022-08-25T01:02:34.136Z,7.49
2022-08-25T01:03:38.004Z,10.08
2022-08-25T01:04:47.583Z,9.71
2022-08-25T01:05:48.340Z,7.17
2022-08-25T01:06:52.785Z,9.99
2022-08-25T01:08:01.193Z,8.23
2022-08-25T01:09:08.980Z,9.86
2022-08-25T01:10:13.672Z,8.76
2022-08-25T01:11:17.214Z,9.67
2022-08-25T01:12:25.607Z,9.21
2022-08-25T01:14:54.875Z,7.14
2022-08-25T01:15:59.552Z,7.12
2022-08-25T01:17:05.161Z,6.43
2022-08-25T01:18:09.543Z,7.13
2022-08-25T01:19:15.655Z,6.52
2022-08-25T01:21:43.122Z,9.12
2022-08-25T01:22:55.071Z,10.63
2022-08-25T01:23:56.374Z,8.92
2022-08-25T01:25:03.332Z,6.65
2022-08-25T01:26:13.882Z,7.97
2022-08-25T01:27:17.004Z,9.48
2022-08-25T01:28:24.713Z,6.39
2022-08-25T01:29:31.646Z,11.27
2022-08-25T01:30:34.934Z,6.41
2022-08-25T01:31:39.788Z,6.19
2022-08-25T01:32:42.701Z,8.94
2022-08-25T01:33:49.606Z,9.54
2022-08-25T01:34:53.259Z,7.72
2022-08-25T01:35:57.117Z,6.82
2022-08-25T01:37:02.814Z,8.46
2022-08-25T01:38:09.732Z,7.63
2022-08-25T01:39:16.588Z,8.40
2022-08-25T01:40:23.577Z,8.38
2022-08-25T01:41:38.597Z,6.99
2022-08-25T01:43:07.598Z,8.91
2022-08-25T01:44:16.451Z,8.26
2022-08-25T01:46:36.582Z,7.79
2022-08-25T01:47:41.622Z,10.58
2022-08-25T01:48:48.763Z,8.12
2022-08-25T01:49:52.502Z,7.73
2022-08-25T01:50:55.759Z,5.88
2022-08-25T01:52:30.163Z,7.01
2022-08-25T01:53:33.900Z,8.09
2022-08-25T01:54:37.647Z,7.65
2022-08-25T01:55:52.995Z,9.23
2022-08-25T01:56:57.671Z,8.42
2022-08-25T01:58:03.550Z,11.78
2022-08-25T01:59:10.900Z,8.83
2022-08-25T02:00:17.703Z,7.44
2022-08-25T02:01:25.605Z,9.39
2022-08-25T02:02:29.242Z,8.62
2022-08-25T02:03:41.186Z,8.02
2022-08-25T02:04:44.708Z,5.53
2022-08-25T02:05:52.492Z,9.42
2022-08-25T02:06:56.372Z,7.02
2022-08-25T02:08:00.988Z,10.36
2022-08-25T02:09:10.935Z,8.81
2022-08-25T02:10:14.761Z,6.40
2022-08-25T02:11:19.410Z,6.74
2022-08-25T02:12:23.933Z,7.38
2022-08-25T02:13:31.665Z,9.46
2022-08-25T02:14:36.994Z,5.94
2022-08-25T02:15:48.122Z,9.23
2022-08-25T02:16:54.572Z,6.13
2022-08-25T02:17:59.463Z,8.25
2022-08-25T02:19:06.006Z,8.38
2022-08-25T02:20:12.420Z,9.66
2022-08-25T02:21:16.094Z,8.52
2022-08-25T02:22:20.636Z,8.48
2022-08-25T02:23:23.973Z,6.92
2022-08-25T02:24:29.855Z,7.72
2022-08-25T02:25:35.340Z,7.62
2022-08-25T02:26:39.221Z,8.18
2022-08-25T02:27:44.754Z,8.86
2022-08-25T02:28:48.813Z,7.19
2022-08-25T02:29:56.103Z,8.29
2022-08-25T02:31:01.759Z,6.83
2022-08-25T02:32:07.903Z,9.76
2022-08-25T02:33:12.194Z,7.03
2022-08-25T02:34:16.216Z,7.13
2022-08-25T02:35:21.851Z,6.61
2022-08-25T02:36:28.595Z,8.84
2022-08-25T02:37:33.944Z,12.70
2022-08-25T02:38:38.181Z,6.41
2022-08-25T02:39:42.765Z,7.11
2022-08-25T02:40:46.444Z,10.75
2022-08-25T02:41:51.368Z,14.09
2022-08-25T02:42:58.366Z,7.41
2022-08-25T02:44:04.230Z,7.33
2022-08-25T02:45:08.507Z,9.46
2022-08-25T02:46:13.544Z,8.27
2022-08-25T02:47:20.462Z,9.39
2022-08-25T02:48:28.544Z,8.87
2022-08-25T02:49:34.748Z,8.87
2022-08-25T02:50:38.564Z,7.07
2022-08-25T03:13:21.180Z,7.96
2022-08-25T03:14:25.569Z,9.74
2022-08-25T03:15:30.492Z,6.17
2022-08-25T03:16:37.310Z,6.93
2022-08-25T03:17:43.807Z,8.23
2022-08-25T03:18:47.285Z,6.50
2022-08-25T03:19:49.848Z,8.18
2022-08-25T03:20:53.572Z,6.66
2022-08-25T03:21:58.594Z,9.68
2022-08-25T03:23:07.372Z,8.51
2022-08-25T03:24:11.562Z,7.98
2022-08-25T03:25:34.726Z,9.45
2022-08-25T03:26:57.574Z,6.94
2022-08-25T03:28:01.438Z,8.54
2022-08-25T03:29:06.356Z,8.99
2022-08-25T03:30:12.253Z,8.37
2022-08-25T03:31:14.850Z,8.16
2022-08-25T03:32:19.743Z,7.36
2022-08-25T03:33:22.277Z,6.92
2022-08-25T03:34:30.084Z,7.60
2022-08-25T03:35:34.440Z,9.57
2022-08-25T03:36:39.244Z,10.85
2022-08-25T03:37:42.391Z,6.89
2022-08-25T03:38:46.190Z,8.13
2022-08-25T03:39:49.694Z,6.62
2022-08-25T03:40:53.452Z,7.05
2022-08-25T03:41:59.876Z,6.14
2022-08-25T03:43:03.406Z,7.35
2022-08-25T03:44:11.507Z,8.22
2022-08-25T03:45:18.400Z,7.22
2022-08-25T03:46:27.825Z,5.83
2022-08-25T03:47:31.254Z,8.07
2022-08-25T03:48:34.056Z,7.56
2022-08-25T03:49:38.787Z,9.04
2022-08-25T03:50:50.705Z,7.91
2022-08-25T03:51:56.486Z,6.62
2022-08-25T03:53:02.752Z,9.11
2022-08-25T03:54:07.499Z,11.00
2022-08-25T03:55:13.025Z,10.47
2022-08-25T03:56:18.696Z,8.54
2022-08-25T03:57:27.972Z,8.18
2022-08-25T03:58:31.650Z,8.18
2022-08-25T03:59:34.952Z,7.43
2022-08-25T04:00:39.599Z,8.20
2022-08-25T04:01:48.428Z,10.11
2022-08-25T04:02:52.492Z,5.71
2022-08-25T04:04:03.624Z,11.30
2022-08-25T04:05:08.929Z,7.79
2022-08-25T04:06:13.411Z,8.14
2022-08-25T04:07:21.157Z,7.16
2022-08-25T04:08:26.438Z,7.86
2022-08-25T04:09:36.431Z,7.81
2022-08-25T04:10:38.086Z,6.39
2022-08-25T04:11:44.832Z,7.05
2022-08-25T04:12:51.987Z,8.17
2022-08-25T04:13:59.186Z,10.15
2022-08-25T04:15:08.192Z,8.57
2022-08-25T04:16:18.134Z,8.41
2022-08-25T04:17:21.946Z,9.14
2022-08-25T04:18:26.593Z,5.92
2022-08-25T04:19:31.190Z,9.83
2022-08-25T04:20:36.380Z,7.78
2022-08-25T04:21:41.436Z,6.59
2022-08-25T04:22:45.504Z,8.64
2022-08-25T04:23:53.328Z,7.23
2022-08-25T04:24:58.285Z,7.94
2022-08-25T04:26:05.003Z,12.10
2022-08-25T04:27:08.724Z,6.78
2022-08-25T04:28:12.161Z,7.62
2022-08-25T04:29:17.568Z,8.71
2022-08-25T04:30:22.854Z,10.05
2022-08-25T04:31:27.071Z,7.45
2022-08-25T04:32:33.163Z,8.04
2022-08-25T04:33:38.594Z,7.92
2022-08-25T04:34:43.011Z,7.75
2022-08-25T04:35:50.473Z,8.75
2022-08-25T04:36:53.767Z,9.22
2022-08-25T04:37:58.350Z,7.55
2022-08-25T04:39:03.212Z,9.40
2022-08-25T04:40:10.969Z,9.66
2022-08-25T04:41:18.534Z,8.56
2022-08-25T04:42:21.599Z,8.16
2022-08-25T04:43:25.209Z,9.99
2022-08-25T04:44:29.721Z,9.03
2022-08-25T04:45:40.226Z,7.08
2022-08-25T04:46:44.774Z,8.82
2022-08-25T04:47:51.770Z,7.65
2022-08-25T04:48:58.683Z,7.18
2022-08-25T04:50:04.796Z,7.87
2022-08-25T04:51:14.472Z,6.49
2022-08-25T04:52:21.448Z,8.32
2022-08-25T04:53:24.053Z,9.08
2022-08-25T04:54:28.878Z,7.63
2022-08-25T04:55:33.948Z,8.32
2022-08-25T04:56:42.015Z,7.78
2022-08-25T04:57:45.621Z,7.11
2022-08-25T04:58:50.314Z,6.59
2022-08-25T04:59:53.884Z,8.87
2022-08-25T05:01:12.144Z,9.78
2022-08-25T05:02:16.902Z,6.71
2022-08-25T05:03:20.101Z,8.69
2022-08-25T05:04:28.118Z,8.74
2022-08-25T05:05:28.850Z,8.89
2022-08-25T05:06:35.597Z,7.32
2022-08-25T05:07:38.999Z,7.71
2022-08-25T05:08:42.644Z,9.47
2022-08-25T05:09:49.108Z,8.17
2022-08-25T05:12:07.148Z,8.39
2022-08-25T05:13:13.162Z,10.82
2022-08-25T05:14:20.853Z,7.34
2022-08-25T05:15:45.450Z,8.07
2022-08-25T05:16:50.726Z,6.99
2022-08-25T05:17:56.099Z,9.05
2022-08-25T05:18:59.791Z,8.48
2022-08-25T05:20:07.729Z,7.91
2022-08-25T05:21:14.723Z,9.51
2022-08-25T05:22:20.853Z,8.05
2022-08-25T05:23:25.926Z,8.20
2022-08-25T05:24:30.233Z,12.69
2022-08-25T05:25:35.190Z,9.12
2022-08-25T05:26:47.659Z,8.84
2022-08-25T05:27:54.280Z,9.32
2022-08-25T05:28:59.746Z,8.74
2022-08-25T05:30:04.088Z,7.81
2022-08-25T05:31:09.142Z,7.37
2022-08-25T05:32:15.909Z,8.80
2022-08-25T05:33:22.332Z,9.23
2022-08-25T05:34:26.148Z,8.13
2022-08-25T05:35:29.792Z,9.87
2022-08-25T05:36:36.017Z,9.34
2022-08-25T05:37:41.780Z,9.81
2022-08-25T05:38:44.654Z,10.42
2022-08-25T05:39:48.971Z,8.86
2022-08-25T05:40:57.193Z,9.31
2022-08-25T05:42:00.720Z,7.61
2022-08-25T05:43:04.217Z,9.66
2022-08-25T05:44:09.413Z,13.61
2022-08-25T05:45:14.294Z,10.02
2022-08-25T05:46:23.580Z,8.75
2022-08-25T05:47:32.600Z,10.50
2022-08-25T05:48:37.823Z,7.14
2022-08-25T05:49:40.520Z,9.01
2022-08-25T05:50:55.907Z,8.14
2022-08-25T05:52:00.284Z,8.77
2022-08-25T05:53:04.067Z,8.05
2022-08-25T05:54:08.415Z,7.94
2022-08-25T05:55:12.431Z,10.36
2022-08-25T05:56:20.336Z,10.90
2022-08-25T05:57:24.040Z,7.75
2022-08-25T05:58:31.079Z,11.54
2022-08-25T05:59:34.809Z,9.73
2022-08-25T06:00:39.995Z,6.70
2022-08-25T06:02:02.543Z,9.76
2022-08-25T06:03:10.079Z,11.41
2022-08-25T06:04:16.722Z,10.81
2022-08-25T06:05:24.442Z,11.82
2022-08-25T06:06:28.113Z,11.54
2022-08-25T06:07:33.138Z,11.44
2022-08-25T06:08:38.574Z,10.59
2022-08-25T06:09:47.542Z,8.93
2022-08-25T06:10:52.548Z,8.09
2022-08-25T06:11:56.708Z,10.03
2022-08-25T06:13:02.555Z,8.35
2022-08-25T06:14:11.768Z,8.09
2022-08-25T06:15:17.604Z,8.83
2022-08-25T06:16:22.491Z,7.99
2022-08-25T06:17:26.382Z,7.74
2022-08-25T06:18:31.581Z,11.05
2022-08-25T06:19:34.632Z,6.92
2022-08-25T06:20:41.219Z,8.10
2022-08-25T06:21:47.515Z,12.17
2022-08-25T06:22:52.023Z,8.86
2022-08-25T06:23:55.592Z,8.02
2022-08-25T06:24:58.717Z,7.32
2022-08-25T06:26:05.289Z,6.22
2022-08-25T06:27:08.480Z,9.73
2022-08-25T06:28:13.450Z,6.75
2022-08-25T06:29:20.897Z,7.32
2022-08-25T06:30:28.920Z,10.43
2022-08-25T06:31:33.364Z,8.21
2022-08-25T06:32:41.684Z,6.96
2022-08-25T06:33:47.010Z,9.48
2022-08-25T06:34:50.373Z,7.76
2022-08-25T06:35:56.686Z,8.81
2022-08-25T06:37:01.607Z,9.28
2022-08-25T06:38:06.082Z,9.84
2022-08-25T06:39:10.549Z,8.08
2022-08-25T06:40:19.485Z,8.98
2022-08-25T06:41:22.698Z,8.23
2022-08-25T06:42:25.770Z,8.12
2022-08-25T06:43:29.639Z,10.29
2022-08-25T06:44:33.178Z,7.03
2022-08-25T06:45:35.608Z,12.89
2022-08-25T06:46:41.179Z,11.25
2022-08-25T06:47:45.549Z,8.97
2022-08-25T06:48:50.186Z,7.08
2022-08-25T06:49:57.151Z,9.66
2022-08-25T06:51:00.706Z,11.13
2022-08-25T06:52:08.197Z,10.42
2022-08-25T06:53:12.666Z,7.37
2022-08-25T06:54:18.016Z,9.14
2022-08-25T06:55:21.383Z,13.23
2022-08-25T06:56:25.480Z,11.31
2022-08-25T06:57:34.461Z,11.46
2022-08-25T06:58:38.172Z,9.59
2022-08-25T06:59:42.090Z,10.12
2022-08-25T07:00:47.281Z,8.79
2022-08-25T07:01:51.281Z,8.25
2022-08-25T07:02:58.796Z,9.62
2022-08-25T07:04:10.094Z,8.43
2022-08-25T07:05:17.021Z,9.52
2022-08-25T07:06:27.041Z,9.71
2022-08-25T07:08:37.715Z,8.94
2022-08-25T07:09:41.397Z,8.63
2022-08-25T07:10:48.175Z,9.96
2022-08-25T07:11:51.021Z,6.54
2022-08-25T07:12:55.511Z,10.21
2022-08-25T07:13:59.683Z,7.84
2022-08-25T07:15:19.369Z,7.06
2022-08-25T07:16:11.708Z,5.89
2022-08-25T07:17:15.690Z,7.48
2022-08-25T07:18:20.133Z,6.61
2022-08-25T07:19:25.191Z,9.23
2022-08-25T07:20:33.219Z,6.81
2022-08-25T07:21:41.767Z,11.85
2022-08-25T07:22:48.110Z,9.78
2022-08-25T07:23:55.254Z,7.93
2022-08-25T07:24:57.688Z,8.95
2022-08-25T07:26:37.768Z,9.27
2022-08-25T07:27:26.588Z,8.12
2022-08-25T07:28:33.087Z,6.95
2022-08-25T07:29:42.711Z,5.78
2022-08-25T07:30:51.772Z,7.73
2022-08-25T07:31:54.265Z,8.22
2022-08-25T07:32:58.000Z,8.36
2022-08-25T07:34:18.963Z,9.06
2022-08-25T07:35:24.562Z,7.14
2022-08-25T07:36:33.573Z,8.67
2022-08-25T07:37:49.731Z,6.47
2022-08-25T07:38:46.929Z,11.03
2022-08-25T07:39:50.830Z,8.77
2022-08-25T07:41:06.510Z,7.11
2022-08-25T07:42:12.035Z,6.93
2022-08-25T07:43:14.285Z,10.15
2022-08-25T07:44:19.031Z,8.36
2022-08-25T07:45:27.254Z,8.23
2022-08-25T07:46:33.587Z,6.17
2022-08-25T07:47:40.314Z,12.91
2022-08-25T07:48:53.273Z,11.37
2022-08-25T07:49:54.758Z,14.92
2022-08-25T07:50:58.904Z,10.84
2022-08-25T07:52:04.717Z,7.69
2022-08-25T07:53:16.940Z,9.46
2022-08-25T07:54:20.700Z,6.99
2022-08-25T07:55:32.217Z,8.90
2022-08-25T07:56:35.477Z,6.23
2022-08-25T07:57:55.366Z,7.58
2022-08-25T07:59:00.483Z,10.44
2022-08-25T08:00:07.473Z,7.54
2022-08-25T08:02:20.680Z,7.71
2022-08-25T08:04:42.657Z,12.62
2022-08-25T08:05:49.511Z,8.34
2022-08-25T08:06:53.562Z,10.47
2022-08-25T08:07:58.982Z,9.44
2022-08-25T08:09:03.831Z,7.40
2022-08-25T08:10:42.186Z,7.93
2022-08-25T08:11:23.952Z,6.82
2022-08-25T08:12:29.579Z,8.31
2022-08-25T08:13:39.313Z,7.20
2022-08-25T08:14:44.996Z,6.44
2022-08-25T08:15:47.039Z,7.64
2022-08-25T08:16:53.126Z,5.46
2022-08-25T08:17:57.078Z,6.57
2022-08-25T08:19:04.710Z,7.61
2022-08-25T08:21:30.678Z,5.70
2022-08-25T08:22:34.199Z,6.55
2022-08-25T08:23:37.217Z,6.91
2022-08-25T08:24:44.909Z,6.71
2022-08-25T08:25:45.900Z,9.24
2022-08-25T08:26:58.712Z,4.43
2022-08-25T08:27:56.040Z,7.96
2022-08-25T08:28:59.648Z,7.99
2022-08-25T08:30:04.963Z,7.31
2022-08-25T08:31:10.562Z,5.52
2022-08-25T08:32:17.071Z,6.83
2022-08-25T08:33:23.228Z,4.37
2022-08-25T08:34:27.098Z,6.17
2022-08-25T08:35:31.368Z,6.22
2022-08-25T08:36:35.041Z,5.66
2022-08-25T08:37:39.871Z,8.23
2022-08-25T08:38:47.106Z,8.01
2022-08-25T08:39:51.993Z,7.21
2022-08-25T08:41:27.141Z,4.89
2022-08-25T08:43:04.633Z,6.42
2022-08-25T08:44:19.335Z,8.07
2022-08-25T08:45:40.554Z,4.63
2022-08-25T08:46:52.219Z,5.41
2022-08-25T08:48:17.774Z,4.17
2022-08-25T08:49:29.118Z,5.46
2022-08-25T08:50:49.328Z,3.78
2022-08-25T08:51:58.583Z,5.56
2022-08-25T08:53:26.527Z,7.47
2022-08-25T08:54:34.911Z,6.51
2022-08-25T08:55:52.286Z,3.78
2022-08-25T08:57:06.665Z,5.77
2022-08-25T08:58:15.265Z,4.37
2022-08-25T08:59:29.944Z,4.17
2022-08-25T09:00:42.147Z,5.34
2022-08-25T09:01:53.311Z,5.08
2022-08-25T09:03:03.385Z,4.94
2022-08-25T09:04:40.960Z,5.32
2022-08-25T09:05:51.076Z,7.40
2022-08-25T09:06:57.119Z,3.92
2022-08-25T09:08:11.333Z,3.63
2022-08-25T09:09:20.203Z,11.49
2022-08-25T09:10:29.178Z,5.67
2022-08-25T09:11:37.120Z,4.47
2022-08-25T09:12:58.189Z,4.17
2022-08-25T09:14:40.529Z,5.19
2022-08-25T09:16:09.447Z,4.91
2022-08-25T09:18:53.264Z,5.24
2022-08-25T09:20:37.011Z,5.03
2022-08-25T09:21:47.722Z,6.69
2022-08-25T09:22:58.385Z,5.16
2022-08-25T09:24:12.065Z,3.53
2022-08-25T09:25:52.976Z,3.77
2022-08-25T09:27:06.801Z,3.43
2022-08-25T09:28:30.162Z,4.10
2022-08-25T09:31:07.919Z,4.31
2022-08-25T09:32:12.718Z,6.68
2022-08-25T09:33:22.041Z,7.06
2022-08-25T09:34:32.874Z,5.49
2022-08-25T09:35:42.682Z,6.06
2022-08-25T09:36:48.627Z,4.81
2022-08-25T09:38:00.938Z,7.52
2022-08-25T09:39:06.569Z,5.17
2022-08-25T09:40:13.300Z,4.42
2022-08-25T09:41:19.533Z,3.27
2022-08-25T09:42:28.700Z,4.13
2022-08-25T09:43:38.102Z,3.55
2022-08-25T09:44:44.794Z,3.81
2022-08-25T09:45:55.461Z,3.08
2022-08-25T09:47:21.135Z,5.50
2022-08-25T09:50:05.503Z,6.20
2022-08-25T09:51:43.016Z,4.63
2022-08-25T09:52:45.048Z,4.59
2022-08-25T09:53:59.154Z,3.12
2022-08-25T09:55:15.401Z,11.80
2022-08-25T09:56:22.363Z,6.48
2022-08-25T09:57:52.970Z,4.54
2022-08-25T09:59:03.054Z,5.24
2022-08-25T10:01:23.716Z,5.63
2022-08-25T10:02:33.467Z,3.93
2022-08-25T10:03:41.879Z,2.89
2022-08-25T10:04:46.650Z,3.27
2022-08-25T10:05:59.968Z,3.41
2022-08-25T10:07:29.130Z,6.24
2022-08-25T10:08:39.538Z,4.07
2022-08-25T10:09:53.772Z,4.58
2022-08-25T10:11:02.023Z,4.19
2022-08-25T10:12:21.197Z,4.96
2022-08-25T10:13:51.435Z,4.82
2022-08-25T10:14:57.036Z,3.14
2022-08-25T10:16:20.003Z,3.73
2022-08-25T10:17:24.609Z,3.16
2022-08-25T10:18:30.427Z,3.66
2022-08-25T10:19:35.592Z,2.82
2022-08-25T10:20:44.407Z,5.26
2022-08-25T10:21:52.116Z,4.93
2022-08-25T10:23:14.764Z,5.57
2022-08-25T10:24:19.493Z,3.21
2022-08-25T10:25:27.068Z,4.06
2022-08-25T10:26:52.247Z,3.56
2022-08-25T10:28:11.626Z,5.68
2022-08-25T10:29:41.852Z,4.38
2022-08-25T10:31:09.641Z,3.80
2022-08-25T10:32:20.490Z,4.05
2022-08-25T10:33:46.096Z,11.37
2022-08-25T10:36:15.171Z,4.03
2022-08-25T10:37:35.399Z,4.82
2022-08-25T10:38:48.916Z,3.90
2022-08-25T10:39:58.237Z,7.55
2022-08-25T10:41:18.073Z,5.53
2022-08-25T10:42:25.982Z,4.62
2022-08-25T10:43:41.402Z,6.64
2022-08-25T10:45:16.624Z,6.83
2022-08-25T10:46:41.725Z,4.17
2022-08-25T10:48:12.329Z,5.53
2022-08-25T10:51:08.537Z,6.74
2022-08-25T10:52:34.654Z,5.77
2022-08-25T10:53:58.204Z,3.32
2022-08-25T10:55:20.208Z,4.65
2022-08-25T10:56:34.715Z,5.63
2022-08-25T10:58:04.505Z,4.79
2022-08-25T10:59:30.079Z,5.31
2022-08-25T11:00:47.052Z,4.68
2022-08-25T11:02:11.701Z,3.43
2022-08-25T11:03:54.034Z,3.77
2022-08-25T11:05:07.502Z,4.16
2022-08-25T11:06:32.639Z,3.66
2022-08-25T11:07:57.403Z,6.56
2022-08-25T11:10:31.206Z,5.83
2022-08-25T11:12:00.173Z,4.77
2022-08-25T11:13:11.319Z,3.93
2022-08-25T11:14:22.635Z,4.74
2022-08-25T11:15:31.170Z,4.36
2022-08-25T11:16:46.133Z,5.44
2022-08-25T11:18:02.340Z,5.24
2022-08-25T11:19:20.166Z,5.11
2022-08-25T11:20:33.865Z,3.51
2022-08-25T11:21:57.231Z,3.49
2022-08-25T11:23:16.927Z,4.41
2022-08-25T11:26:03.309Z,3.94
2022-08-25T11:27:13.628Z,3.98
2022-08-25T11:28:35.211Z,4.85
2022-08-25T11:29:45.129Z,6.38
2022-08-25T11:30:56.501Z,5.59
2022-08-25T11:32:01.353Z,3.73
2022-08-25T11:33:07.772Z,6.36
2022-08-25T11:34:21.813Z,4.97
2022-08-25T11:35:32.020Z,5.74
2022-08-25T11:36:42.492Z,3.96
2022-08-25T11:39:38.880Z,3.77
2022-08-25T11:41:24.207Z,5.43
2022-08-25T11:42:49.291Z,6.03
2022-08-25T11:44:19.155Z,7.41
2022-08-25T11:45:38.817Z,3.66
2022-08-25T11:47:02.340Z,4.25
2022-08-25T11:48:31.360Z,5.89
2022-08-25T11:51:09.414Z,4.07
2022-08-25T11:52:36.229Z,3.81
2022-08-25T11:53:43.506Z,5.67
2022-08-25T11:54:49.093Z,3.66
2022-08-25T11:55:59.683Z,3.70
2022-08-25T11:57:12.295Z,4.12
2022-08-25T11:58:35.606Z,5.77
2022-08-25T11:59:59.403Z,5.50
2022-08-25T12:01:06.044Z,3.68
2022-08-25T12:02:15.497Z,5.72
2022-08-25T12:03:39.143Z,6.46
2022-08-25T12:04:44.699Z,6.76
2022-08-25T12:05:51.474Z,5.26
2022-08-25T12:07:10.644Z,5.26
2022-08-25T12:08:31.204Z,4.57
2022-08-25T12:09:57.650Z,5.45
2022-08-25T12:11:11.089Z,4.17
2022-08-25T12:12:26.533Z,5.26
2022-08-25T12:13:51.359Z,5.24
2022-08-25T12:14:56.091Z,4.54
2022-08-25T12:16:01.411Z,4.20
2022-08-25T12:18:32.838Z,3.18
2022-08-25T12:19:38.971Z,3.01
2022-08-25T12:20:58.345Z,4.78
2022-08-25T12:22:06.216Z,3.79
2022-08-25T12:23:13.785Z,3.31
2022-08-25T12:24:23.843Z,4.47
2022-08-25T12:25:34.031Z,8.89
2022-08-25T12:26:47.295Z,6.78
2022-08-25T12:28:17.630Z,3.39
2022-08-25T12:29:49.447Z,5.46
2022-08-25T12:31:33.400Z,4.35
2022-08-25T12:33:40.658Z,3.98
2022-08-25T12:34:48.552Z,5.75
2022-08-25T12:36:49.754Z,6.09
2022-08-25T12:38:30.046Z,6.24
2022-08-25T12:40:31.655Z,6.22
2022-08-25T12:42:32.060Z,6.69
2022-08-25T12:44:31.754Z,3.94
2022-08-25T12:46:13.567Z,5.73
2022-08-25T12:48:14.412Z,5.07
2022-08-25T12:49:52.856Z,6.40
2022-08-25T12:51:06.385Z,7.53
2022-08-25T12:53:06.185Z,6.87
2022-08-25T12:54:47.661Z,3.78
2022-08-25T12:56:13.172Z,5.69
2022-08-25T12:57:24.972Z,5.18
2022-08-25T13:01:57.478Z,11.10
2022-08-25T13:05:24.065Z,5.55
2022-08-25T13:06:51.779Z,4.49
2022-08-25T13:08:04.982Z,3.43
2022-08-25T13:09:32.517Z,4.12
2022-08-25T13:10:59.210Z,5.31
2022-08-25T13:12:27.707Z,5.53
2022-08-25T13:15:08.644Z,4.51
2022-08-25T13:16:32.307Z,6.10
2022-08-25T13:17:38.304Z,6.59
2022-08-25T13:18:41.038Z,3.41
2022-08-25T13:19:44.586Z,5.43
2022-08-25T13:20:56.587Z,7.12
2022-08-25T13:22:15.532Z,4.49
2022-08-25T13:23:20.961Z,4.97
2022-08-25T13:25:46.251Z,6.87
2022-08-25T13:26:53.349Z,4.01
2022-08-25T13:28:00.875Z,7.99
2022-08-25T13:29:11.569Z,5.92
2022-08-25T13:31:42.084Z,5.49
2022-08-25T13:32:45.792Z,4.81
2022-08-25T13:34:05.423Z,4.74
2022-08-25T13:35:14.700Z,4.94
2022-08-25T13:36:38.795Z,3.91
2022-08-25T13:37:44.106Z,5.29
2022-08-25T13:38:51.742Z,6.62
2022-08-25T13:40:17.943Z,7.07
2022-08-25T13:41:28.772Z,5.97
2022-08-25T13:42:30.627Z,8.07
2022-08-25T13:43:36.158Z,7.02
2022-08-25T13:44:41.126Z,5.40
2022-08-25T13:45:51.057Z,4.00
2022-08-25T13:47:15.639Z,4.32
2022-08-25T13:48:39.620Z,6.37
2022-08-25T13:49:48.380Z,4.33
2022-08-25T13:50:52.877Z,4.33
2022-08-25T13:52:00.683Z,4.22
2022-08-25T13:53:13.967Z,5.59
2022-08-25T13:54:40.551Z,3.70
2022-08-25T13:55:57.676Z,4.09
2022-08-25T13:57:18.550Z,4.70
2022-08-25T13:58:39.255Z,5.14
2022-08-25T13:59:40.210Z,4.42
2022-08-25T14:00:49.793Z,4.81
2022-08-25T14:01:59.992Z,3.91
2022-08-25T14:03:13.122Z,4.88
2022-08-25T14:04:33.261Z,5.64
2022-08-25T14:05:42.726Z,5.29
2022-08-25T14:06:47.804Z,6.94
2022-08-25T14:08:03.796Z,5.36
2022-08-25T14:09:06.084Z,4.59
2022-08-25T14:10:13.810Z,5.49
2022-08-25T14:11:33.805Z,4.72
2022-08-25T14:12:47.373Z,5.46
2022-08-25T14:13:54.968Z,5.15
2022-08-25T14:15:06.185Z,3.88
2022-08-25T14:16:22.808Z,4.96
2022-08-25T14:17:39.314Z,4.05
2022-08-25T14:18:34.639Z,4.70
2022-08-25T14:19:45.805Z,5.57
2022-08-25T14:21:02.698Z,3.47
2022-08-25T14:22:13.112Z,4.39
2022-08-25T14:23:22.083Z,4.71
2022-08-25T14:24:27.763Z,4.81
2022-08-25T14:25:32.473Z,5.50
2022-08-25T14:26:36.262Z,4.82
2022-08-25T14:28:06.974Z,5.62
2022-08-25T14:28:53.016Z,4.43
2022-08-25T14:29:56.796Z,5.32
2022-08-25T14:31:05.174Z,4.79
2022-08-25T14:32:10.913Z,3.97
2022-08-25T14:33:21.247Z,3.77
2022-08-25T14:34:28.840Z,4.02
2022-08-25T14:35:32.857Z,5.22
2022-08-25T14:36:38.645Z,5.29
2022-08-25T14:37:43.060Z,5.43
2022-08-25T14:38:47.142Z,5.46
2022-08-25T14:39:55.052Z,4.07
2022-08-25T14:41:02.287Z,5.69
2022-08-25T14:42:09.813Z,5.18
2022-08-25T14:43:13.978Z,4.52
2022-08-25T14:44:18.292Z,4.62
2022-08-25T14:45:21.535Z,7.91
2022-08-25T14:46:29.175Z,9.28
2022-08-25T14:47:34.300Z,3.46
2022-08-25T14:48:42.343Z,3.09
2022-08-25T14:49:50.892Z,5.09
2022-08-25T14:51:00.490Z,5.95
2022-08-25T14:52:11.291Z,4.07
2022-08-25T14:53:16.835Z,4.38
2022-08-25T14:54:24.410Z,5.26
2022-08-25T14:55:32.411Z,6.02
2022-08-25T14:56:34.968Z,5.81
2022-08-25T14:57:40.637Z,5.62
2022-08-25T14:58:48.280Z,5.94
2022-08-25T14:59:50.840Z,5.77
2022-08-25T15:01:06.266Z,3.62
2022-08-25T15:02:15.546Z,4.59
2022-08-25T15:03:40.983Z,4.39
2022-08-25T15:04:57.577Z,5.18
2022-08-25T15:06:03.474Z,3.99
2022-08-25T15:07:11.342Z,3.71
2022-08-25T15:08:36.810Z,5.71
2022-08-25T15:09:42.999Z,4.82
2022-08-25T15:10:47.932Z,4.46
2022-08-25T15:11:55.788Z,4.81
2022-08-25T15:13:03.004Z,5.41
2022-08-25T15:15:21.063Z,5.33
2022-08-25T15:16:40.075Z,4.88
2022-08-25T15:17:47.579Z,6.23
2022-08-25T15:18:54.660Z,4.75
2022-08-25T15:19:59.550Z,4.79
2022-08-25T15:21:03.968Z,8.07
2022-08-25T15:22:08.333Z,5.08
2022-08-25T15:23:14.785Z,5.78
2022-08-25T15:24:20.213Z,6.89
2022-08-25T15:25:24.886Z,5.79
2022-08-25T15:26:36.998Z,7.63
2022-08-25T15:27:41.991Z,4.57
2022-08-25T15:28:51.087Z,6.10
2022-08-25T15:29:53.820Z,4.43
2022-08-25T15:30:57.250Z,4.69
2022-08-25T15:32:00.852Z,6.50
2022-08-25T15:33:04.425Z,5.64
2022-08-25T15:34:11.623Z,4.88
2022-08-25T15:35:15.314Z,4.34
2022-08-25T15:36:24.562Z,6.55
2022-08-25T15:37:30.973Z,3.66
2022-08-25T15:38:37.375Z,6.01
2022-08-25T15:39:42.730Z,4.40
2022-08-25T15:40:47.396Z,4.22
2022-08-25T15:41:52.552Z,3.99
2022-08-25T15:42:56.169Z,4.86
2022-08-25T15:44:01.616Z,4.95
2022-08-25T15:45:08.759Z,4.34
2022-08-25T15:46:18.501Z,4.51
2022-08-25T15:47:23.720Z,5.02
2022-08-25T15:48:30.750Z,5.66
2022-08-25T15:49:34.602Z,4.84
2022-08-25T15:50:38.737Z,4.74
2022-08-25T15:51:49.373Z,5.61
2022-08-25T15:54:04.843Z,4.07
2022-08-25T15:55:10.556Z,5.49
2022-08-25T15:56:15.659Z,5.62
2022-08-25T15:57:25.318Z,5.97
2022-08-25T15:58:30.164Z,6.38
2022-08-25T15:59:32.916Z,6.43
2022-08-25T16:00:39.346Z,5.08
2022-08-25T16:01:45.448Z,6.66
2022-08-25T16:02:50.877Z,5.73
2022-08-25T16:03:54.974Z,6.86
2022-08-25T16:05:00.014Z,6.23
2022-08-25T16:06:06.815Z,8.08
2022-08-25T16:07:13.353Z,5.68
2022-08-25T16:08:19.734Z,7.82
2022-08-25T16:09:23.614Z,6.79
2022-08-25T16:10:27.306Z,9.80
2022-08-25T16:11:34.249Z,8.16
2022-08-25T16:12:42.714Z,4.39
2022-08-25T16:13:48.216Z,6.22
2022-08-25T16:14:52.793Z,5.14
2022-08-25T16:15:58.021Z,6.52
2022-08-25T16:17:03.108Z,3.91
2022-08-25T16:18:11.008Z,7.22
2022-08-25T16:19:14.757Z,6.67
2022-08-25T16:20:20.314Z,5.71
2022-08-25T16:21:29.163Z,5.94
2022-08-25T16:22:32.621Z,8.63
2022-08-25T16:23:36.257Z,5.40
2022-08-25T16:24:44.392Z,5.85
2022-08-25T16:25:50.010Z,5.62
2022-08-25T16:26:56.806Z,6.54